createdAt,value
2022-10-06T00:00:19.875Z,7.40
2022-10-06T00:01:19.902Z,8.60
2022-10-06T00:02:19.896Z,5.60
2022-10-06T00:03:19.810Z,6.80
2022-10-06T00:04:19.806Z,6.00
2022-10-06T00:05:19.830Z,7.90
2022-10-06T00:06:19.826Z,6.80
2022-10-06T00:07:19.855Z,5.80
2022-10-06T00:08:19.812Z,5.40
2022-10-06T00:09:19.783Z,7.10
2022-10-06T00:10:19.817Z,4.30
2022-10-06T00:11:19.781Z,5.40
2022-10-06T00:12:20.763Z,5.70
2022-10-06T00:13:19.778Z,7.90
2022-10-06T00:14:19.747Z,7.00
2022-10-06T00:15:19.752Z,5.60
2022-10-06T00:16:19.807Z,5.70
2022-10-06T00:17:19.763Z,5.40
2022-10-06T00:18:19.724Z,4.90
2022-10-06T00:19:19.745Z,6.80
2022-10-06T00:20:19.697Z,6.00
2022-10-06T00:21:19.726Z,9.00
2022-10-06T00:22:19.679Z,5.50
2022-10-06T00:23:19.699Z,6.20
2022-10-06T00:24:19.678Z,5.70
2022-10-06T00:25:19.679Z,4.70
2022-10-06T00:26:19.687Z,6.10
2022-10-06T00:27:19.654Z,7.40
2022-10-06T00:28:19.694Z,7.40
2022-10-06T00:29:19.642Z,8.30
2022-10-06T00:30:19.668Z,4.80
2022-10-06T00:31:19.967Z,5.70
2022-10-06T00:32:19.646Z,5.20
2022-10-06T00:33:19.616Z,6.10
2022-10-06T00:34:19.610Z,5.40
2022-10-06T00:35:19.594Z,5.80
2022-10-06T00:36:19.595Z,6.30
2022-10-06T00:37:19.591Z,5.80
2022-10-06T00:38:19.595Z,5.10
2022-10-06T00:39:19.562Z,6.20
2022-10-06T00:40:19.585Z,6.20
2022-10-06T00:41:19.559Z,8.00
2022-10-06T00:42:19.577Z,7.10
2022-10-06T00:43:19.542Z,7.40
2022-10-06T00:44:19.536Z,8.20
2022-10-06T00:45:19.544Z,5.50
2022-10-06T00:46:19.629Z,6.30
2022-10-06T00:47:19.525Z,5.40
2022-10-06T00:48:19.541Z,5.90
2022-10-06T00:49:19.501Z,5.40
2022-10-06T00:50:19.510Z,5.00
2022-10-06T00:51:19.490Z,5.00
2022-10-06T00:52:19.497Z,5.70
2022-10-06T00:53:19.475Z,4.70
2022-10-06T00:54:19.469Z,6.40
2022-10-06T00:55:19.474Z,6.00
2022-10-06T00:56:19.457Z,5.20
2022-10-06T00:57:19.521Z,5.20
2022-10-06T00:58:19.492Z,5.90
2022-10-06T00:59:19.449Z,6.50
2022-10-06T01:00:19.485Z,5.00
2022-10-06T01:01:19.480Z,5.10
2022-10-06T01:02:20.518Z,6.50
2022-10-06T01:03:19.409Z,8.40
2022-10-06T01:04:19.430Z,6.80
2022-10-06T01:05:19.429Z,6.70
2022-10-06T01:06:19.437Z,7.10
2022-10-06T01:07:19.387Z,8.20
2022-10-06T01:08:19.413Z,8.60
2022-10-06T01:09:19.426Z,5.00
2022-10-06T01:10:19.401Z,6.30
2022-10-06T01:11:19.360Z,6.10
2022-10-06T01:12:19.368Z,6.90
2022-10-06T01:13:19.345Z,7.20
2022-10-06T01:14:19.384Z,8.10
2022-10-06T01:15:19.342Z,5.80
2022-10-06T01:16:19.417Z,5.40
2022-10-06T01:17:19.308Z,4.90
2022-10-06T01:18:19.304Z,4.60
2022-10-06T01:19:19.310Z,9.20
2022-10-06T01:20:19.295Z,5.50
2022-10-06T01:21:19.327Z,6.40
2022-10-06T01:22:19.283Z,6.20
2022-10-06T01:23:19.294Z,5.10
2022-10-06T01:24:19.263Z,6.20
2022-10-06T01:25:19.262Z,5.10
2022-10-06T01:26:19.259Z,5.70
2022-10-06T01:27:19.243Z,6.30
2022-10-06T01:28:19.286Z,8.60
2022-10-06T01:29:19.227Z,6.60
2022-10-06T01:30:19.247Z,6.60
2022-10-06T01:31:19.310Z,3.00
2022-10-06T01:32:19.207Z,3.10
2022-10-06T01:33:19.219Z,2.60
2022-10-06T01:34:19.194Z,3.80
2022-10-06T01:35:19.181Z,2.20
2022-10-06T01:36:19.195Z,3.00
2022-10-06T01:37:19.183Z,2.90
2022-10-06T01:38:19.176Z,2.10
2022-10-06T01:39:19.167Z,1.70
2022-10-06T01:40:19.177Z,1.70
2022-10-06T01:41:19.164Z,2.00
2022-10-06T01:42:19.166Z,2.50
2022-10-06T01:43:19.144Z,2.90
2022-10-06T01:44:19.135Z,2.20
2022-10-06T01:45:19.138Z,3.10
2022-10-06T01:46:19.230Z,2.20
2022-10-06T01:47:19.125Z,1.80
2022-10-06T01:48:19.107Z,1.40
2022-10-06T01:49:19.114Z,2.00
2022-10-06T01:50:19.091Z,2.00
2022-10-06T01:51:19.111Z,2.10
2022-10-06T01:52:19.108Z,3.50
2022-10-06T01:53:19.077Z,1.70
2022-10-06T01:54:19.100Z,2.00
2022-10-06T01:55:19.075Z,1.60
2022-10-06T01:56:19.052Z,2.20
2022-10-06T01:57:19.059Z,1.20
2022-10-06T01:58:19.036Z,1.20
2022-10-06T01:59:19.097Z,1.00
2022-10-06T02:00:19.012Z,1.90
2022-10-06T02:01:19.095Z,1.40
2022-10-06T02:02:19.027Z,2.20
2022-10-06T02:03:19.029Z,3.00
2022-10-06T02:04:19.074Z,1.20
2022-10-06T02:05:18.992Z,1.40
2022-10-06T02:06:19.044Z,0.90
2022-10-06T02:07:18.971Z,1.30
2022-10-06T02:08:18.995Z,1.10
2022-10-06T02:09:18.971Z,1.10
2022-10-06T02:10:18.968Z,2.00
2022-10-06T02:11:18.951Z,0.80
2022-10-06T02:12:18.948Z,1.00
2022-10-06T02:13:18.963Z,1.50
2022-10-06T02:14:18.952Z,1.70
2022-10-06T02:15:18.929Z,1.40
2022-10-06T02:16:18.973Z,1.10
2022-10-06T02:17:18.928Z,1.20
2022-10-06T02:18:18.917Z,1.70
2022-10-06T02:19:18.907Z,1.50
2022-10-06T02:20:18.900Z,1.30
2022-10-06T02:21:18.888Z,1.40
2022-10-06T02:22:18.906Z,1.80
2022-10-06T02:23:18.935Z,1.00
2022-10-06T02:24:18.880Z,1.80
2022-10-06T02:25:18.861Z,2.50
2022-10-06T02:26:18.860Z,1.50
2022-10-06T02:27:18.835Z,2.70
2022-10-06T02:28:18.915Z,2.50
2022-10-06T02:29:18.847Z,3.30
2022-10-06T02:30:18.832Z,3.00
2022-10-06T02:31:18.904Z,3.10
2022-10-06T02:32:19.783Z,2.10
2022-10-06T02:33:18.810Z,3.10
2022-10-06T02:34:18.814Z,4.30
2022-10-06T02:35:18.807Z,1.90
2022-10-06T02:36:19.315Z,2.20
2022-10-06T02:37:18.780Z,2.40
2022-10-06T02:38:18.775Z,3.00
2022-10-06T02:39:18.758Z,3.20
2022-10-06T02:40:18.775Z,2.90
2022-10-06T02:41:18.759Z,4.30
2022-10-06T02:42:19.288Z,2.50
2022-10-06T02:43:18.752Z,2.90
2022-10-06T02:44:18.752Z,2.70
2022-10-06T02:45:18.747Z,3.40
2022-10-06T02:46:18.780Z,2.70
2022-10-06T02:47:18.721Z,2.90
2022-10-06T02:48:18.719Z,1.80
2022-10-06T02:49:18.723Z,3.30
2022-10-06T02:50:18.739Z,4.00
2022-10-06T02:51:18.726Z,6.70
2022-10-06T02:52:18.713Z,4.20
2022-10-06T02:53:18.686Z,2.40
2022-10-06T02:54:18.693Z,2.80
2022-10-06T02:55:18.665Z,3.00
2022-10-06T02:56:18.697Z,2.90
2022-10-06T02:57:18.682Z,4.20
2022-10-06T02:58:18.665Z,6.20
2022-10-06T02:59:18.689Z,4.20
2022-10-06T03:00:18.638Z,3.90
2022-10-06T03:01:18.710Z,2.90
2022-10-06T03:02:18.790Z,3.30
2022-10-06T03:03:18.656Z,3.00
2022-10-06T03:04:18.620Z,4.60
2022-10-06T03:05:18.637Z,3.70
2022-10-06T03:06:18.610Z,3.50
2022-10-06T03:07:18.609Z,3.00
2022-10-06T03:08:18.606Z,4.50
2022-10-06T03:09:18.588Z,3.80
2022-10-06T03:10:18.577Z,3.30
2022-10-06T03:11:18.613Z,3.60
2022-10-06T03:12:18.608Z,3.00
2022-10-06T03:13:18.573Z,2.90
2022-10-06T03:14:21.907Z,4.20
2022-10-06T03:15:19.552Z,3.50
2022-10-06T03:16:18.603Z,2.30
2022-10-06T03:17:18.573Z,5.40
2022-10-06T03:18:18.541Z,5.70
2022-10-06T03:19:18.529Z,4.70
2022-10-06T03:20:18.518Z,5.10
2022-10-06T03:21:18.532Z,3.50
2022-10-06T03:22:18.520Z,2.30
2022-10-06T03:23:18.505Z,3.50
2022-10-06T03:24:18.491Z,5.40
2022-10-06T03:25:18.526Z,4.90
2022-10-06T03:26:18.511Z,4.70
2022-10-06T03:27:18.488Z,3.00
2022-10-06T03:28:18.530Z,4.20
2022-10-06T03:29:18.467Z,4.90
2022-10-06T03:30:18.458Z,4.00
2022-10-06T03:31:18.473Z,3.90
2022-10-06T03:32:18.474Z,7.40
2022-10-06T03:33:18.447Z,7.40
2022-10-06T03:34:18.455Z,3.60
2022-10-06T03:35:18.438Z,4.80
2022-10-06T03:36:18.448Z,7.20
2022-10-06T03:37:18.450Z,4.30
2022-10-06T03:38:18.426Z,6.30
2022-10-06T03:39:18.395Z,5.30
2022-10-06T03:40:18.404Z,6.10
2022-10-06T03:41:18.399Z,4.10
2022-10-06T03:42:18.380Z,5.80
2022-10-06T03:43:18.541Z,5.00
2022-10-06T03:44:18.384Z,6.20
2022-10-06T03:45:18.383Z,6.30
2022-10-06T03:46:18.426Z,4.90
2022-10-06T03:47:18.375Z,6.00
2022-10-06T03:48:18.360Z,5.10
2022-10-06T03:49:18.351Z,3.90
2022-10-06T03:50:18.343Z,5.00
2022-10-06T03:51:18.416Z,5.10
2022-10-06T03:52:21.250Z,4.70
2022-10-06T03:53:19.328Z,8.00
2022-10-06T03:54:18.334Z,6.00
2022-10-06T03:55:18.321Z,4.70
2022-10-06T03:56:18.298Z,7.20
2022-10-06T03:57:18.306Z,6.30
2022-10-06T03:58:18.283Z,7.70
2022-10-06T03:59:18.283Z,4.90
2022-10-06T04:00:18.294Z,6.20
2022-10-06T04:01:21.097Z,5.90
2022-10-06T04:02:20.324Z,9.00
2022-10-06T04:03:18.261Z,5.40
2022-10-06T04:04:18.247Z,7.50
2022-10-06T04:05:18.271Z,6.40
2022-10-06T04:06:18.257Z,7.20
2022-10-06T04:07:18.254Z,5.60
2022-10-06T04:08:18.219Z,7.20
2022-10-06T04:09:18.233Z,6.30
2022-10-06T04:10:18.236Z,7.20
2022-10-06T04:11:18.225Z,6.00
2022-10-06T04:12:18.204Z,4.40
2022-10-06T04:13:18.200Z,7.80
2022-10-06T04:14:18.197Z,6.50
2022-10-06T04:15:18.196Z,7.20
2022-10-06T04:16:18.221Z,4.50
2022-10-06T04:17:18.192Z,3.90
2022-10-06T04:18:18.160Z,6.50
2022-10-06T04:19:18.160Z,5.50
2022-10-06T04:20:18.152Z,7.20
2022-10-06T04:21:18.145Z,7.90
2022-10-06T04:22:18.160Z,6.00
2022-10-06T04:23:18.181Z,7.60
2022-10-06T04:24:18.119Z,5.80
2022-10-06T04:25:18.125Z,6.00
2022-10-06T04:26:18.150Z,6.80
2022-10-06T04:27:18.124Z,7.30
2022-10-06T04:28:18.157Z,7.20
2022-10-06T04:29:18.102Z,6.50
2022-10-06T04:30:18.133Z,7.50
2022-10-06T04:31:18.184Z,7.40
2022-10-06T04:32:18.105Z,4.90
2022-10-06T04:33:18.074Z,7.70
2022-10-06T04:34:18.062Z,6.80
2022-10-06T04:35:18.058Z,7.20
2022-10-06T04:36:18.072Z,5.60
2022-10-06T04:37:18.058Z,6.10
2022-10-06T04:38:18.133Z,6.80
2022-10-06T04:39:18.039Z,6.30
2022-10-06T04:40:18.047Z,6.90
2022-10-06T04:41:18.050Z,7.60
2022-10-06T04:42:18.035Z,6.90
2022-10-06T04:43:18.024Z,7.80
2022-10-06T04:44:18.047Z,8.60
2022-10-06T04:45:18.002Z,5.80
2022-10-06T04:46:41.455Z,8.40
2022-10-06T04:47:19.993Z,7.50
2022-10-06T04:48:19.010Z,8.00
2022-10-06T04:49:20.302Z,5.60
2022-10-06T04:50:19.020Z,8.10
2022-10-06T04:51:17.968Z,7.20
2022-10-06T04:52:17.957Z,7.50
2022-10-06T04:53:17.980Z,6.80
2022-10-06T04:54:18.002Z,6.70
2022-10-06T04:55:19.412Z,10.20
2022-10-06T04:56:17.921Z,7.00
2022-10-06T04:57:17.973Z,5.70
2022-10-06T04:58:17.989Z,8.40
2022-10-06T04:59:17.948Z,7.10
2022-10-06T05:00:17.912Z,7.20
2022-10-06T05:01:17.938Z,7.60
2022-10-06T05:02:18.011Z,7.90
2022-10-06T05:03:17.914Z,6.80
2022-10-06T05:04:17.876Z,5.80
2022-10-06T05:05:17.959Z,5.80
2022-10-06T05:06:17.879Z,8.20
2022-10-06T05:07:17.887Z,9.30
2022-10-06T05:08:17.923Z,7.40
2022-10-06T05:09:17.870Z,5.30
2022-10-06T05:10:17.851Z,6.90
2022-10-06T05:11:20.329Z,6.60
2022-10-06T05:12:18.854Z,6.20
2022-10-06T05:13:17.828Z,9.20
2022-10-06T05:14:18.840Z,6.80
2022-10-06T05:15:17.844Z,10.70
2022-10-06T05:16:17.853Z,9.00
2022-10-06T05:17:17.804Z,8.30
2022-10-06T05:18:17.835Z,8.60
2022-10-06T05:19:17.778Z,7.30
2022-10-06T05:20:17.870Z,7.00
2022-10-06T05:21:17.769Z,9.70
2022-10-06T05:22:17.805Z,7.90
2022-10-06T05:23:17.774Z,7.20
2022-10-06T05:24:17.797Z,6.20
2022-10-06T05:25:17.774Z,8.10
2022-10-06T05:26:17.758Z,9.10
2022-10-06T05:27:17.769Z,5.20
2022-10-06T05:28:17.820Z,6.90
2022-10-06T05:29:17.731Z,9.50
2022-10-06T05:30:17.717Z,9.60
2022-10-06T05:31:17.747Z,6.00
2022-10-06T05:32:17.745Z,9.70
2022-10-06T05:33:17.689Z,9.80
2022-10-06T05:34:17.670Z,7.30
2022-10-06T05:35:18.682Z,7.40
2022-10-06T05:36:17.693Z,9.80
2022-10-06T05:37:17.745Z,8.50
2022-10-06T05:38:17.662Z,8.80
2022-10-06T05:39:17.651Z,8.40
2022-10-06T05:40:17.644Z,11.50
2022-10-06T05:41:17.664Z,10.10
2022-10-06T05:42:17.659Z,12.00
2022-10-06T05:43:17.627Z,11.50
2022-10-06T05:44:17.615Z,9.40
2022-10-06T05:45:17.647Z,8.80
2022-10-06T05:46:17.780Z,12.30
2022-10-06T05:47:17.618Z,8.80
2022-10-06T05:48:17.612Z,7.20
2022-10-06T05:49:17.597Z,9.20
2022-10-06T05:50:19.504Z,8.40
2022-10-06T05:51:17.573Z,9.30
2022-10-06T05:52:17.680Z,10.20
2022-10-06T05:53:17.550Z,8.20
2022-10-06T05:54:17.582Z,8.20
2022-10-06T05:55:17.558Z,10.10
2022-10-06T05:56:17.555Z,11.50
2022-10-06T05:57:17.533Z,9.70
2022-10-06T05:58:19.302Z,10.90
2022-10-06T05:59:17.535Z,6.10
2022-10-06T06:00:18.544Z,10.20
2022-10-06T06:01:17.604Z,9.00
2022-10-06T06:02:17.649Z,10.40
2022-10-06T06:03:17.522Z,10.60
2022-10-06T06:04:17.492Z,9.40
2022-10-06T06:05:17.499Z,8.00
2022-10-06T06:06:17.474Z,6.90
2022-10-06T06:07:17.486Z,11.60
2022-10-06T06:08:17.514Z,8.20
2022-10-06T06:09:17.518Z,9.80
2022-10-06T06:10:17.448Z,9.80
2022-10-06T06:11:17.490Z,10.90
2022-10-06T06:12:17.445Z,9.00
2022-10-06T06:13:17.434Z,8.50
2022-10-06T06:14:17.427Z,8.30
2022-10-06T06:15:17.414Z,9.50
2022-10-06T06:16:17.457Z,7.50
2022-10-06T06:17:17.426Z,7.70
2022-10-06T06:18:17.403Z,7.50
2022-10-06T06:19:17.377Z,11.50
2022-10-06T06:20:17.366Z,10.10
2022-10-06T06:21:18.394Z,7.70
2022-10-06T06:22:17.395Z,8.90
2022-10-06T06:23:17.395Z,8.00
2022-10-06T06:24:17.361Z,8.20
2022-10-06T06:25:17.350Z,11.00
2022-10-06T06:26:17.374Z,11.60
2022-10-06T06:27:17.355Z,10.70
2022-10-06T06:28:17.448Z,10.60
2022-10-06T06:29:17.323Z,12.70
2022-10-06T06:30:17.315Z,12.40
2022-10-06T06:31:20.321Z,12.20
2022-10-06T06:32:18.303Z,10.60
2022-10-06T06:33:17.294Z,11.10
2022-10-06T06:34:17.306Z,10.80
2022-10-06T06:35:17.308Z,9.50
2022-10-06T06:36:17.279Z,10.20
2022-10-06T06:37:17.294Z,10.00
2022-10-06T06:38:18.258Z,12.20
2022-10-06T06:39:17.258Z,11.00
2022-10-06T06:40:17.250Z,11.70
2022-10-06T06:41:17.245Z,9.00
2022-10-06T06:42:17.247Z,18.10
2022-10-06T06:43:17.244Z,9.00
2022-10-06T06:44:17.226Z,11.20
2022-10-06T06:45:17.245Z,10.20
2022-10-06T06:46:17.322Z,7.60
2022-10-06T06:47:17.221Z,11.30
2022-10-06T06:48:17.214Z,12.70
2022-10-06T06:49:17.210Z,8.50
2022-10-06T06:50:17.194Z,15.50
2022-10-06T06:51:17.199Z,13.20
2022-10-06T06:52:17.203Z,14.60
2022-10-06T06:53:17.175Z,15.10
2022-10-06T06:54:17.150Z,15.30
2022-10-06T06:55:17.162Z,13.30
2022-10-06T06:56:50.143Z,12.90
2022-10-06T06:57:17.122Z,13.30
2022-10-06T06:58:17.130Z,10.70
2022-10-06T06:59:17.166Z,9.10
2022-10-06T07:00:17.135Z,7.40
2022-10-06T07:01:17.146Z,6.10
2022-10-06T07:02:17.199Z,7.90
2022-10-06T07:03:32.795Z,7.60
2022-10-06T07:04:19.087Z,7.10
2022-10-06T07:05:17.090Z,10.40
2022-10-06T07:06:17.066Z,8.10
2022-10-06T07:07:17.090Z,7.40
2022-10-06T07:08:17.068Z,7.70
2022-10-06T07:09:17.828Z,9.20
2022-10-06T07:10:17.052Z,6.70
2022-10-06T07:11:17.044Z,7.70
2022-10-06T07:12:17.031Z,9.20
2022-10-06T07:13:17.504Z,8.00
2022-10-06T07:14:18.060Z,14.00
2022-10-06T07:15:17.088Z,9.90
2022-10-06T07:16:17.061Z,10.80
2022-10-06T07:17:16.993Z,7.00
2022-10-06T07:18:17.037Z,5.60
2022-10-06T07:19:20.092Z,8.80
2022-10-06T07:20:18.815Z,8.60
2022-10-06T07:21:16.976Z,8.00
2022-10-06T07:22:16.963Z,5.50
2022-10-06T07:23:16.976Z,7.90
2022-10-06T07:24:16.965Z,7.10
2022-10-06T07:25:19.449Z,7.00
2022-10-06T07:26:16.976Z,8.70
2022-10-06T07:27:16.925Z,6.60
2022-10-06T07:28:17.036Z,9.60
2022-10-06T07:29:17.115Z,11.60
2022-10-06T07:30:16.935Z,6.70
2022-10-06T07:31:16.953Z,6.80
2022-10-06T07:32:16.901Z,8.30
2022-10-06T07:33:16.912Z,7.60
2022-10-06T07:34:16.882Z,7.30
2022-10-06T07:35:16.945Z,9.50
2022-10-06T07:36:16.891Z,5.70
2022-10-06T07:37:16.866Z,6.10
2022-10-06T07:38:16.890Z,8.50
2022-10-06T07:39:16.879Z,9.30
2022-10-06T07:40:16.879Z,6.40
2022-10-06T07:41:19.821Z,7.60
2022-10-06T07:42:17.848Z,6.70
2022-10-06T07:43:16.925Z,6.60
2022-10-06T07:44:16.820Z,9.00
2022-10-06T07:45:16.876Z,7.40
2022-10-06T07:46:16.898Z,5.00
2022-10-06T07:47:16.819Z,7.10
2022-10-06T07:48:16.807Z,8.00
2022-10-06T07:49:16.815Z,8.70
2022-10-06T07:50:16.807Z,8.10
2022-10-06T07:51:16.915Z,8.10
2022-10-06T07:52:16.766Z,5.30
2022-10-06T07:53:16.753Z,5.90
2022-10-06T07:54:16.754Z,6.50
2022-10-06T07:55:16.782Z,7.00
2022-10-06T07:56:16.756Z,11.80
2022-10-06T07:57:16.783Z,12.10
2022-10-06T07:58:17.719Z,9.90
2022-10-06T07:59:19.312Z,8.90
2022-10-06T08:00:16.806Z,5.70
2022-10-06T08:01:16.775Z,7.70
2022-10-06T08:02:16.735Z,6.10
2022-10-06T08:03:17.007Z,10.40
2022-10-06T08:04:16.727Z,5.50
2022-10-06T08:05:16.675Z,6.60
2022-10-06T08:06:16.674Z,7.30
2022-10-06T08:07:16.658Z,6.70
2022-10-06T08:08:16.870Z,5.30
2022-10-06T08:09:16.675Z,5.90
2022-10-06T08:10:16.644Z,8.60
2022-10-06T08:11:16.656Z,7.30
2022-10-06T08:12:16.620Z,6.20
2022-10-06T08:13:16.633Z,8.80
2022-10-06T08:14:16.609Z,9.20
2022-10-06T08:15:16.905Z,7.10
2022-10-06T08:16:16.635Z,8.60
2022-10-06T08:17:16.589Z,10.30
2022-10-06T08:18:33.779Z,6.50
2022-10-06T08:19:18.599Z,6.70
2022-10-06T08:20:16.646Z,10.10
2022-10-06T08:21:16.612Z,9.80
2022-10-06T08:22:16.601Z,8.10
2022-10-06T08:23:16.702Z,6.50
2022-10-06T08:24:16.550Z,6.20
2022-10-06T08:25:16.981Z,6.30
2022-10-06T08:26:16.565Z,7.70
2022-10-06T08:27:16.518Z,6.90
2022-10-06T08:28:16.630Z,9.00
2022-10-06T08:29:16.582Z,4.50
2022-10-06T08:30:16.518Z,7.60
2022-10-06T08:31:16.568Z,9.40
2022-10-06T08:32:16.513Z,7.40
2022-10-06T08:33:19.051Z,9.10
2022-10-06T08:34:16.477Z,7.70
2022-10-06T08:35:16.514Z,8.10
2022-10-06T08:36:16.471Z,5.30
2022-10-06T08:37:20.113Z,5.40
2022-10-06T08:38:17.478Z,7.20
2022-10-06T08:39:16.465Z,7.80
2022-10-06T08:40:16.472Z,6.70
2022-10-06T08:41:16.577Z,7.10
2022-10-06T08:42:16.440Z,7.80
2022-10-06T08:43:16.443Z,9.60
2022-10-06T08:44:16.469Z,7.10
2022-10-06T08:45:16.476Z,7.50
2022-10-06T08:46:18.816Z,8.70
2022-10-06T08:47:16.556Z,6.10
2022-10-06T08:48:16.408Z,7.70
2022-10-06T08:49:16.395Z,8.60
2022-10-06T08:50:16.415Z,8.00
2022-10-06T08:51:16.451Z,8.30
2022-10-06T08:52:16.382Z,5.20
2022-10-06T08:53:16.485Z,6.70
2022-10-06T08:54:16.438Z,5.60
2022-10-06T08:55:16.361Z,23.90
2022-10-06T08:56:16.348Z,7.30
2022-10-06T08:57:16.358Z,6.60
2022-10-06T08:58:16.335Z,6.80
2022-10-06T08:59:16.396Z,7.40
2022-10-06T09:00:19.622Z,7.40
2022-10-06T09:01:18.355Z,6.90
2022-10-06T09:02:16.393Z,7.80
2022-10-06T09:03:16.328Z,4.90
2022-10-06T09:04:16.428Z,8.40
2022-10-06T09:05:16.356Z,7.00
2022-10-06T09:06:16.289Z,7.40
2022-10-06T09:07:16.347Z,8.00
2022-10-06T09:08:16.375Z,6.80
2022-10-06T09:09:16.266Z,5.50
2022-10-06T09:10:16.303Z,8.30
2022-10-06T09:11:16.267Z,9.10
2022-10-06T09:12:16.291Z,6.10
2022-10-06T09:13:20.969Z,5.90
2022-10-06T09:14:18.259Z,6.90
2022-10-06T09:15:16.250Z,8.20
2022-10-06T09:16:16.310Z,8.30
2022-10-06T09:17:16.238Z,5.40
2022-10-06T09:18:16.519Z,5.70
2022-10-06T09:19:16.459Z,7.60
2022-10-06T09:20:16.221Z,6.50
2022-10-06T09:21:16.328Z,4.60
2022-10-06T09:22:16.240Z,5.90
2022-10-06T09:23:16.216Z,6.30
2022-10-06T09:24:16.224Z,5.20
2022-10-06T09:25:16.185Z,6.10
2022-10-06T09:26:16.169Z,7.20
2022-10-06T09:27:16.180Z,7.50
2022-10-06T09:28:16.250Z,6.80
2022-10-06T09:29:16.152Z,5.10
2022-10-06T09:30:16.169Z,8.00
2022-10-06T09:31:16.234Z,4.90
2022-10-06T09:32:16.152Z,8.70
2022-10-06T09:33:16.147Z,5.60
2022-10-06T09:34:16.144Z,7.10
2022-10-06T09:35:16.111Z,7.30
2022-10-06T09:36:16.108Z,5.70
2022-10-06T09:37:16.155Z,5.80
2022-10-06T09:38:16.099Z,7.70
2022-10-06T09:39:16.111Z,6.80
2022-10-06T09:40:16.116Z,6.10
2022-10-06T09:41:16.097Z,6.20
2022-10-06T09:42:16.090Z,6.60
2022-10-06T09:43:16.078Z,5.40
2022-10-06T09:44:16.070Z,7.00
2022-10-06T09:45:16.160Z,7.80
2022-10-06T09:46:16.077Z,6.70
2022-10-06T09:47:16.046Z,7.30
2022-10-06T09:48:16.036Z,5.50
2022-10-06T09:49:16.050Z,8.10
2022-10-06T09:50:16.065Z,4.60
2022-10-06T09:51:16.037Z,5.80
2022-10-06T09:52:16.008Z,7.40
2022-10-06T09:53:16.040Z,4.70
2022-10-06T09:54:16.000Z,8.90
2022-10-06T09:55:16.008Z,6.70
2022-10-06T09:56:16.000Z,6.90
2022-10-06T09:57:15.977Z,6.70
2022-10-06T09:58:15.979Z,6.30
2022-10-06T09:59:15.984Z,6.20
2022-10-06T10:00:16.055Z,4.80
2022-10-06T10:01:16.076Z,4.30
2022-10-06T10:02:15.960Z,7.50
2022-10-06T10:03:16.068Z,5.50
2022-10-06T10:04:20.686Z,4.80
2022-10-06T10:05:16.983Z,6.10
2022-10-06T10:06:15.956Z,6.10
2022-10-06T10:07:15.930Z,5.10
2022-10-06T10:08:15.955Z,9.10
2022-10-06T10:09:17.850Z,3.50
2022-10-06T10:10:15.959Z,5.90
2022-10-06T10:11:15.920Z,6.10
2022-10-06T10:12:15.931Z,5.30
2022-10-06T10:13:15.952Z,6.70
2022-10-06T10:14:15.935Z,3.90
2022-10-06T10:15:15.896Z,3.80
2022-10-06T10:16:15.953Z,4.70
2022-10-06T10:17:15.917Z,5.60
2022-10-06T10:18:15.918Z,6.20
2022-10-06T10:19:15.883Z,6.50
2022-10-06T10:20:15.894Z,3.90
2022-10-06T10:21:15.870Z,4.40
2022-10-06T10:22:15.903Z,5.90
2022-10-06T10:23:15.870Z,6.10
2022-10-06T10:24:15.854Z,6.80
2022-10-06T10:25:15.838Z,4.20
2022-10-06T10:26:15.838Z,4.30
2022-10-06T10:27:15.844Z,6.50
2022-10-06T10:28:15.912Z,4.90
2022-10-06T10:29:15.883Z,4.50
2022-10-06T10:30:15.830Z,5.40
2022-10-06T10:31:15.852Z,5.50
2022-10-06T10:32:15.803Z,5.20
2022-10-06T10:33:15.876Z,7.30
2022-10-06T10:34:25.221Z,4.90
2022-10-06T10:35:17.806Z,6.50
2022-10-06T10:36:15.801Z,6.00
2022-10-06T10:37:15.791Z,6.00
2022-10-06T10:38:15.830Z,5.10
2022-10-06T10:39:15.789Z,5.70
2022-10-06T10:40:15.782Z,6.50
2022-10-06T10:41:16.376Z,8.30
2022-10-06T10:42:15.764Z,7.30
2022-10-06T10:43:15.775Z,8.30
2022-10-06T10:44:15.747Z,6.20
2022-10-06T10:45:15.786Z,5.80
2022-10-06T10:46:15.776Z,7.70
2022-10-06T10:47:15.778Z,7.60
2022-10-06T10:48:15.737Z,7.00
2022-10-06T10:49:15.756Z,5.60
2022-10-06T10:50:15.776Z,7.10
2022-10-06T10:51:16.380Z,4.60
2022-10-06T10:52:15.704Z,5.70
2022-10-06T10:53:15.749Z,6.70
2022-10-06T10:54:15.720Z,5.10
2022-10-06T10:55:15.692Z,5.00
2022-10-06T10:56:15.744Z,7.00
2022-10-06T10:57:15.725Z,6.00
2022-10-06T10:58:16.348Z,4.20
2022-10-06T10:59:15.684Z,8.10
2022-10-06T11:00:15.669Z,7.50
2022-10-06T11:01:15.803Z,6.40
2022-10-06T11:02:15.701Z,4.10
2022-10-06T11:03:15.661Z,6.30
2022-10-06T11:04:15.660Z,7.10
2022-10-06T11:05:16.664Z,5.70
2022-10-06T11:06:15.680Z,5.40
2022-10-06T11:07:15.653Z,4.80
2022-10-06T11:08:15.681Z,5.10
2022-10-06T11:09:15.664Z,4.00
2022-10-06T11:10:15.752Z,4.70
2022-10-06T11:11:15.685Z,7.50
2022-10-06T11:12:15.637Z,8.60
2022-10-06T11:13:15.645Z,6.10
2022-10-06T11:14:15.710Z,5.20
2022-10-06T11:15:15.649Z,6.10
2022-10-06T11:16:15.638Z,4.60
2022-10-06T11:17:15.600Z,6.00
2022-10-06T11:18:19.455Z,8.50
2022-10-06T11:19:16.653Z,5.50
2022-10-06T11:20:15.596Z,4.20
2022-10-06T11:21:15.591Z,3.80
2022-10-06T11:22:15.572Z,5.00
2022-10-06T11:23:15.572Z,4.90
2022-10-06T11:24:15.609Z,4.90
2022-10-06T11:25:15.615Z,10.60
2022-10-06T11:26:15.524Z,9.30
2022-10-06T11:27:15.533Z,4.30
2022-10-06T11:28:15.563Z,6.80
2022-10-06T11:29:15.508Z,5.80
2022-10-06T11:30:15.497Z,8.40
2022-10-06T11:31:20.193Z,6.40
2022-10-06T11:32:17.521Z,7.90
2022-10-06T11:33:15.488Z,6.80
2022-10-06T11:34:15.464Z,6.10
2022-10-06T11:35:15.465Z,5.40
2022-10-06T11:36:15.508Z,5.50
2022-10-06T11:37:16.404Z,7.30
2022-10-06T11:38:15.484Z,7.60
2022-10-06T11:39:15.484Z,5.40
2022-10-06T11:40:16.380Z,6.40
2022-10-06T11:41:15.456Z,6.20
2022-10-06T11:42:15.469Z,6.70
2022-10-06T11:43:15.499Z,6.30
2022-10-06T11:44:15.449Z,5.90
2022-10-06T11:45:15.430Z,5.80
2022-10-06T11:46:15.484Z,6.90
2022-10-06T11:47:15.474Z,8.90
2022-10-06T11:48:15.385Z,10.40
2022-10-06T11:49:15.403Z,3.90
2022-10-06T11:50:15.392Z,7.60
2022-10-06T11:51:16.396Z,6.30
2022-10-06T11:52:15.370Z,4.50
2022-10-06T11:53:15.360Z,7.00
2022-10-06T11:54:15.372Z,4.80
2022-10-06T11:55:15.371Z,7.70
2022-10-06T11:56:15.369Z,6.60
2022-10-06T11:57:15.349Z,5.70
2022-10-06T11:58:41.887Z,5.30
2022-10-06T11:59:17.352Z,7.90
2022-10-06T12:00:15.309Z,4.40
2022-10-06T12:01:15.312Z,5.60
2022-10-06T12:02:15.497Z,7.00
2022-10-06T12:03:15.396Z,6.60
2022-10-06T12:04:15.305Z,9.30
2022-10-06T12:05:49.617Z,5.20
2022-10-06T12:06:17.296Z,6.20
2022-10-06T12:07:15.293Z,5.90
2022-10-06T12:08:15.327Z,7.50
2022-10-06T12:09:15.916Z,6.40
2022-10-06T12:10:15.258Z,5.80
2022-10-06T12:11:15.279Z,6.30
2022-10-06T12:12:15.267Z,5.30
2022-10-06T12:13:51.018Z,5.90
2022-10-06T12:17:05.576Z,5.30
2022-10-06T12:17:08.508Z,5.30
2022-10-06T12:17:19.747Z,6.90
2022-10-06T12:18:16.471Z,6.20
2022-10-06T12:19:15.261Z,5.60
2022-10-06T12:20:15.214Z,7.80
2022-10-06T12:21:15.199Z,7.80
2022-10-06T12:22:15.205Z,5.80
2022-10-06T12:23:15.233Z,7.00
2022-10-06T12:24:15.293Z,6.60
2022-10-06T12:25:15.178Z,7.10
2022-10-06T12:26:16.174Z,4.30
2022-10-06T12:27:15.188Z,7.80
2022-10-06T12:28:15.256Z,9.60
2022-10-06T12:29:15.152Z,7.80
2022-10-06T12:30:16.188Z,7.50
2022-10-06T12:31:18.313Z,7.40
2022-10-06T12:32:16.121Z,6.10
2022-10-06T12:33:15.144Z,7.40
2022-10-06T12:34:15.102Z,3.80
2022-10-06T12:35:15.121Z,7.00
2022-10-06T12:36:15.325Z,5.40
2022-10-06T12:37:15.142Z,7.20
2022-10-06T12:38:15.135Z,8.40
2022-10-06T12:39:15.077Z,5.20
2022-10-06T12:40:15.126Z,5.70
2022-10-06T12:41:15.085Z,5.90
2022-10-06T12:42:15.122Z,7.20
2022-10-06T12:43:15.051Z,5.10
2022-10-06T12:44:15.053Z,5.20
2022-10-06T12:45:15.035Z,7.50
2022-10-06T12:46:15.082Z,5.70
2022-10-06T12:47:15.033Z,5.70
2022-10-06T12:48:16.262Z,6.20
2022-10-06T12:49:15.014Z,6.10
2022-10-06T12:50:14.989Z,9.00
2022-10-06T12:51:15.006Z,6.00
2022-10-06T12:52:15.029Z,5.70
2022-10-06T12:53:15.017Z,6.70
2022-10-06T12:54:14.966Z,6.10
2022-10-06T12:55:14.957Z,4.60
2022-10-06T12:56:14.990Z,5.30
2022-10-06T12:57:14.939Z,5.60
2022-10-06T12:58:14.965Z,5.80
2022-10-06T12:59:14.949Z,5.20
2022-10-06T13:00:14.987Z,6.80
2022-10-06T13:01:15.021Z,6.50
2022-10-06T13:02:14.959Z,6.60
2022-10-06T13:03:14.916Z,7.80
2022-10-06T13:04:14.901Z,6.70
2022-10-06T13:05:14.990Z,8.20
2022-10-06T13:06:14.900Z,5.20
2022-10-06T13:07:15.934Z,9.10
2022-10-06T13:08:14.893Z,5.20
2022-10-06T13:09:14.889Z,5.50
2022-10-06T13:10:14.893Z,6.00
2022-10-06T13:11:14.856Z,7.40
2022-10-06T13:12:14.845Z,7.20
2022-10-06T13:13:14.909Z,5.50
2022-10-06T13:14:14.909Z,7.40
2022-10-06T13:15:14.911Z,7.90
2022-10-06T13:16:14.941Z,6.20
2022-10-06T13:17:14.838Z,5.00